sensor_id;sensor_type;location;lat;lon;timestamp;P1;durP1;ratioP1;P2;durP2;ratioP2
17925;SDS011;9088;55.674;13.354;2023-03-20T00:01:18;2.90;;;2.80;;
17925;SDS011;9088;55.674;13.354;2023-03-20T00:03:46;2.93;;;2.83;;
17925;SDS011;9088;55.674;13.354;2023-03-20T00:06:14;3.00;;;2.90;;
17925;SDS011;9088;55.674;13.354;2023-03-20T00:08:42;2.93;;;2.83;;
17925;SDS011;9088;55.674;13.354;2023-03-20T00:11:14;3.10;;;3.00;;
17925;SDS011;9088;55.674;13.354;2023-03-20T00:13:48;3.10;;;3.00;;
17925;SDS011;9088;55.674;13.354;2023-03-20T00:16:16;3.00;;;2.90;;
17925;SDS011;9088;55.674;13.354;2023-03-20T00:18:43;3.10;;;3.00;;
17925;SDS011;9088;55.674;13.354;2023-03-20T00:21:11;3.00;;;2.90;;
17925;SDS011;9088;55.674;13.354;2023-03-20T00:23:42;2.90;;;2.80;;
17925;SDS011;9088;55.674;13.354;2023-03-20T00:26:10;2.80;;;2.70;;
17925;SDS011;9088;55.674;13.354;2023-03-20T00:28:39;2.80;;;2.70;;
17925;SDS011;9088;55.674;13.354;2023-03-20T00:31:13;2.90;;;2.80;;
17925;SDS011;9088;55.674;13.354;2023-03-20T00:33:42;2.90;;;2.80;;
17925;SDS011;9088;55.674;13.354;2023-03-20T00:36:10;2.80;;;2.70;;
17925;SDS011;9088;55.674;13.354;2023-03-20T00:38:37;2.80;;;2.70;;
17925;SDS011;9088;55.674;13.354;2023-03-20T00:41:10;2.50;;;2.40;;
17925;SDS011;9088;55.674;13.354;2023-03-20T00:43:38;2.57;;;2.47;;
17925;SDS011;9088;55.674;13.354;2023-03-20T00:46:06;2.60;;;2.50;;
17925;SDS011;9088;55.674;13.354;2023-03-20T00:48:33;2.60;;;2.50;;
17925;SDS011;9088;55.674;13.354;2023-03-20T00:51:05;2.60;;;2.50;;
17925;SDS011;9088;55.674;13.354;2023-03-20T00:53:32;2.50;;;2.40;;
17925;SDS011;9088;55.674;13.354;2023-03-20T00:55:59;2.50;;;2.40;;
17925;SDS011;9088;55.674;13.354;2023-03-20T00:58:26;2.60;;;2.50;;
17925;SDS011;9088;55.674;13.354;2023-03-20T01:00:53;2.60;;;2.50;;
17925;SDS011;9088;55.674;13.354;2023-03-20T01:03:21;2.60;;;2.50;;
17925;SDS011;9088;55.674;13.354;2023-03-20T01:05:51;2.50;;;2.40;;
17925;SDS011;9088;55.674;13.354;2023-03-20T01:08:20;2.30;;;2.20;;
17925;SDS011;9088;55.674;13.354;2023-03-20T01:10:48;2.50;;;2.40;;
17925;SDS011;9088;55.674;13.354;2023-03-20T01:13:18;2.60;;;2.50;;
17925;SDS011;9088;55.674;13.354;2023-03-20T01:15:48;2.40;;;2.30;;
17925;SDS011;9088;55.674;13.354;2023-03-20T01:18:16;2.60;;;2.50;;
17925;SDS011;9088;55.674;13.354;2023-03-20T01:20:43;2.60;;;2.50;;
17925;SDS011;9088;55.674;13.354;2023-03-20T01:23:11;2.80;;;2.70;;
17925;SDS011;9088;55.674;13.354;2023-03-20T01:25:40;2.80;;;2.70;;
17925;SDS011;9088;55.674;13.354;2023-03-20T01:28:11;2.70;;;2.60;;
17925;SDS011;9088;55.674;13.354;2023-03-20T01:30:39;2.90;;;2.80;;
17925;SDS011;9088;55.674;13.354;2023-03-20T01:33:09;2.70;;;2.60;;
17925;SDS011;9088;55.674;13.354;2023-03-20T01:35:37;2.80;;;2.70;;
17925;SDS011;9088;55.674;13.354;2023-03-20T01:38:11;2.80;;;2.70;;
17925;SDS011;9088;55.674;13.354;2023-03-20T01:40:43;2.50;;;2.40;;
17925;SDS011;9088;55.674;13.354;2023-03-20T01:43:14;2.60;;;2.50;;
17925;SDS011;9088;55.674;13.354;2023-03-20T01:45:43;2.60;;;2.50;;
17925;SDS011;9088;55.674;13.354;2023-03-20T01:48:14;2.60;;;2.50;;
17925;SDS011;9088;55.674;13.354;2023-03-20T01:50:41;2.60;;;2.50;;
17925;SDS011;9088;55.674;13.354;2023-03-20T01:53:09;2.50;;;2.40;;
17925;SDS011;9088;55.674;13.354;2023-03-20T01:55:37;2.60;;;2.50;;
17925;SDS011;9088;55.674;13.354;2023-03-20T01:58:08;2.43;;;2.33;;
17925;SDS011;9088;55.674;13.354;2023-03-20T02:00:36;2.40;;;2.30;;
17925;SDS011;9088;55.674;13.354;2023-03-20T02:03:04;2.57;;;2.47;;
17925;SDS011;9088;55.674;13.354;2023-03-20T02:05:32;2.60;;;2.50;;
17925;SDS011;9088;55.674;13.354;2023-03-20T02:08:02;2.50;;;2.40;;
17925;SDS011;9088;55.674;13.354;2023-03-20T02:10:31;2.50;;;2.40;;
17925;SDS011;9088;55.674;13.354;2023-03-20T02:12:58;2.40;;;2.30;;
17925;SDS011;9088;55.674;13.354;2023-03-20T02:15:29;2.40;;;2.30;;
17925;SDS011;9088;55.674;13.354;2023-03-20T02:17:56;2.40;;;2.30;;
17925;SDS011;9088;55.674;13.354;2023-03-20T02:20:30;2.40;;;2.30;;
17925;SDS011;9088;55.674;13.354;2023-03-20T02:23:08;2.20;;;2.10;;
17925;SDS011;9088;55.674;13.354;2023-03-20T02:25:57;2.30;;;2.20;;
17925;SDS011;9088;55.674;13.354;2023-03-20T02:28:33;2.20;;;2.10;;
17925;SDS011;9088;55.674;13.354;2023-03-20T02:31:12;2.20;;;2.10;;
17925;SDS011;9088;55.674;13.354;2023-03-20T02:33:54;2.30;;;2.20;;
17925;SDS011;9088;55.674;13.354;2023-03-20T02:41:55;1.80;;;1.80;;
17925;SDS011;9088;55.674;13.354;2023-03-20T02:44:25;1.60;;;1.60;;
17925;SDS011;9088;55.674;13.354;2023-03-20T02:46:58;1.50;;;1.50;;
17925;SDS011;9088;55.674;13.354;2023-03-20T02:49:32;1.20;;;1.20;;
17925;SDS011;9088;55.674;13.354;2023-03-20T02:52:00;1.10;;;1.10;;
17925;SDS011;9088;55.674;13.354;2023-03-20T02:54:32;1.10;;;1.10;;
17925;SDS011;9088;55.674;13.354;2023-03-20T02:57:05;1.00;;;1.00;;
17925;SDS011;9088;55.674;13.354;2023-03-20T02:59:34;0.90;;;0.90;;
17925;SDS011;9088;55.674;13.354;2023-03-20T03:02:03;1.00;;;1.00;;
17925;SDS011;9088;55.674;13.354;2023-03-20T03:04:33;1.00;;;1.00;;
17925;SDS011;9088;55.674;13.354;2023-03-20T03:07:01;1.00;;;1.00;;
17925;SDS011;9088;55.674;13.354;2023-03-20T03:09:30;1.00;;;1.00;;
17925;SDS011;9088;55.674;13.354;2023-03-20T03:11:59;0.90;;;0.90;;
17925;SDS011;9088;55.674;13.354;2023-03-20T03:14:31;0.80;;;0.80;;
17925;SDS011;9088;55.674;13.354;2023-03-20T03:16:59;0.80;;;0.80;;
17925;SDS011;9088;55.674;13.354;2023-03-20T03:19:28;0.73;;;0.73;;
17925;SDS011;9088;55.674;13.354;2023-03-20T03:21:56;0.80;;;0.80;;
17925;SDS011;9088;55.674;13.354;2023-03-20T03:24:26;0.80;;;0.80;;
17925;SDS011;9088;55.674;13.354;2023-03-20T03:26:54;0.80;;;0.80;;
17925;SDS011;9088;55.674;13.354;2023-03-20T03:29:23;0.70;;;0.70;;
17925;SDS011;9088;55.674;13.354;2023-03-20T03:31:53;0.80;;;0.80;;
17925;SDS011;9088;55.674;13.354;2023-03-20T03:34:20;0.80;;;0.80;;
17925;SDS011;9088;55.674;13.354;2023-03-20T03:36:49;0.80;;;0.80;;
17925;SDS011;9088;55.674;13.354;2023-03-20T03:39:21;0.80;;;0.80;;
17925;SDS011;9088;55.674;13.354;2023-03-20T03:41:51;0.70;;;0.70;;
17925;SDS011;9088;55.674;13.354;2023-03-20T03:44:19;0.70;;;0.70;;
17925;SDS011;9088;55.674;13.354;2023-03-20T03:46:49;0.70;;;0.70;;
17925;SDS011;9088;55.674;13.354;2023-03-20T03:49:19;0.70;;;0.70;;
17925;SDS011;9088;55.674;13.354;2023-03-20T03:51:47;0.70;;;0.70;;
17925;SDS011;9088;55.674;13.354;2023-03-20T03:54:17;0.70;;;0.70;;
17925;SDS011;9088;55.674;13.354;2023-03-20T03:56:45;0.70;;;0.70;;
17925;SDS011;9088;55.674;13.354;2023-03-20T03:59:15;0.70;;;0.70;;
17925;SDS011;9088;55.674;13.354;2023-03-20T04:01:44;0.70;;;0.70;;
17925;SDS011;9088;55.674;13.354;2023-03-20T04:04:12;0.70;;;0.70;;
17925;SDS011;9088;55.674;13.354;2023-03-20T04:06:41;0.70;;;0.70;;
17925;SDS011;9088;55.674;13.354;2023-03-20T04:09:08;0.70;;;0.70;;
17925;SDS011;9088;55.674;13.354;2023-03-20T04:11:36;0.70;;;0.70;;
17925;SDS011;9088;55.674;13.354;2023-03-20T04:14:03;0.60;;;0.60;;
17925;SDS011;9088;55.674;13.354;2023-03-20T04:16:30;0.67;;;0.67;;
17925;SDS011;9088;55.674;13.354;2023-03-20T04:18:57;0.60;;;0.60;;
17925;SDS011;9088;55.674;13.354;2023-03-20T04:21:24;0.60;;;0.60;;
17925;SDS011;9088;55.674;13.354;2023-03-20T04:23:53;0.70;;;0.70;;
17925;SDS011;9088;55.674;13.354;2023-03-20T04:26:21;0.70;;;0.70;;
17925;SDS011;9088;55.674;13.354;2023-03-20T04:28:48;0.70;;;0.70;;
17925;SDS011;9088;55.674;13.354;2023-03-20T04:31:15;0.70;;;0.70;;
17925;SDS011;9088;55.674;13.354;2023-03-20T04:33:43;0.70;;;0.70;;
17925;SDS011;9088;55.674;13.354;2023-03-20T04:36:10;0.80;;;0.80;;
17925;SDS011;9088;55.674;13.354;2023-03-20T04:38:38;0.80;;;0.80;;
17925;SDS011;9088;55.674;13.354;2023-03-20T04:41:06;0.80;;;0.80;;
17925;SDS011;9088;55.674;13.354;2023-03-20T04:43:33;0.70;;;0.70;;
17925;SDS011;9088;55.674;13.354;2023-03-20T04:46:00;0.70;;;0.70;;
17925;SDS011;9088;55.674;13.354;2023-03-20T04:48:27;0.70;;;0.70;;
17925;SDS011;9088;55.674;13.354;2023-03-20T04:50:54;0.80;;;0.80;;
17925;SDS011;9088;55.674;13.354;2023-03-20T04:53:24;0.80;;;0.80;;
17925;SDS011;9088;55.674;13.354;2023-03-20T04:55:51;0.70;;;0.70;;
17925;SDS011;9088;55.674;13.354;2023-03-20T04:58:22;0.70;;;0.70;;
17925;SDS011;9088;55.674;13.354;2023-03-20T05:00:51;0.80;;;0.80;;
17925;SDS011;9088;55.674;13.354;2023-03-20T05:03:18;0.70;;;0.70;;
17925;SDS011;9088;55.674;13.354;2023-03-20T05:05:45;0.90;;;0.90;;
17925;SDS011;9088;55.674;13.354;2023-03-20T05:08:12;0.80;;;0.80;;
17925;SDS011;9088;55.674;13.354;2023-03-20T05:10:39;0.80;;;0.80;;
17925;SDS011;9088;55.674;13.354;2023-03-20T05:13:06;0.80;;;0.80;;
17925;SDS011;9088;55.674;13.354;2023-03-20T05:15:34;0.80;;;0.80;;
17925;SDS011;9088;55.674;13.354;2023-03-20T05:18:07;0.70;;;0.70;;
17925;SDS011;9088;55.674;13.354;2023-03-20T05:20:34;0.77;;;0.77;;
17925;SDS011;9088;55.674;13.354;2023-03-20T05:23:01;0.70;;;0.70;;
17925;SDS011;9088;55.674;13.354;2023-03-20T05:25:29;0.80;;;0.80;;
17925;SDS011;9088;55.674;13.354;2023-03-20T05:27:56;0.70;;;0.70;;
17925;SDS011;9088;55.674;13.354;2023-03-20T05:30:23;0.80;;;0.80;;
17925;SDS011;9088;55.674;13.354;2023-03-20T05:32:51;0.70;;;0.70;;
17925;SDS011;9088;55.674;13.354;2023-03-20T05:35:18;0.80;;;0.80;;
17925;SDS011;9088;55.674;13.354;2023-03-20T05:37:45;0.90;;;0.90;;
17925;SDS011;9088;55.674;13.354;2023-03-20T05:40:13;0.80;;;0.80;;
17925;SDS011;9088;55.674;13.354;2023-03-20T05:42:40;0.90;;;0.90;;
17925;SDS011;9088;55.674;13.354;2023-03-20T05:45:08;1.00;;;1.00;;
17925;SDS011;9088;55.674;13.354;2023-03-20T05:47:35;1.00;;;1.00;;
17925;SDS011;9088;55.674;13.354;2023-03-20T05:50:04;1.03;;;1.03;;
17925;SDS011;9088;55.674;13.354;2023-03-20T05:52:31;1.17;;;1.17;;
17925;SDS011;9088;55.674;13.354;2023-03-20T05:54:58;1.30;;;1.30;;
17925;SDS011;9088;55.674;13.354;2023-03-20T05:57:25;1.30;;;1.30;;
17925;SDS011;9088;55.674;13.354;2023-03-20T05:59:52;6.90;;;6.60;;
17925;SDS011;9088;55.674;13.354;2023-03-20T06:02:19;6.70;;;6.43;;
17925;SDS011;9088;55.674;13.354;2023-03-20T06:04:46;6.80;;;6.50;;
17925;SDS011;9088;55.674;13.354;2023-03-20T06:07:14;7.07;;;6.77;;
17925;SDS011;9088;55.674;13.354;2023-03-20T06:09:41;7.30;;;7.00;;
17925;SDS011;9088;55.674;13.354;2023-03-20T06:12:08;7.00;;;6.70;;
17925;SDS011;9088;55.674;13.354;2023-03-20T06:14:38;7.10;;;6.80;;
17925;SDS011;9088;55.674;13.354;2023-03-20T06:17:05;6.47;;;6.27;;
17925;SDS011;9088;55.674;13.354;2023-03-20T06:19:32;6.60;;;6.40;;
17925;SDS011;9088;55.674;13.354;2023-03-20T06:21:59;6.50;;;6.30;;
17925;SDS011;9088;55.674;13.354;2023-03-20T06:24:27;6.10;;;5.90;;
17925;SDS011;9088;55.674;13.354;2023-03-20T06:26:54;6.07;;;5.87;;
17925;SDS011;9088;55.674;13.354;2023-03-20T06:29:21;6.43;;;6.23;;
17925;SDS011;9088;55.674;13.354;2023-03-20T06:31:48;6.20;;;6.00;;
17925;SDS011;9088;55.674;13.354;2023-03-20T06:34:15;6.30;;;6.10;;
17925;SDS011;9088;55.674;13.354;2023-03-20T06:36:42;5.90;;;5.70;;
17925;SDS011;9088;55.674;13.354;2023-03-20T06:39:09;6.20;;;6.00;;
17925;SDS011;9088;55.674;13.354;2023-03-20T06:41:38;5.80;;;5.60;;
17925;SDS011;9088;55.674;13.354;2023-03-20T06:44:05;5.73;;;5.53;;
17925;SDS011;9088;55.674;13.354;2023-03-20T06:46:35;5.60;;;5.40;;
17925;SDS011;9088;55.674;13.354;2023-03-20T06:49:02;5.47;;;5.27;;
17925;SDS011;9088;55.674;13.354;2023-03-20T06:51:30;5.30;;;5.10;;
17925;SDS011;9088;55.674;13.354;2023-03-20T06:53:58;5.20;;;5.00;;
17925;SDS011;9088;55.674;13.354;2023-03-20T06:56:25;5.00;;;4.80;;
17925;SDS011;9088;55.674;13.354;2023-03-20T06:58:54;5.23;;;5.03;;
17925;SDS011;9088;55.674;13.354;2023-03-20T07:01:21;5.00;;;4.80;;
17925;SDS011;9088;55.674;13.354;2023-03-20T07:03:48;4.70;;;4.50;;
17925;SDS011;9088;55.674;13.354;2023-03-20T07:06:15;4.50;;;4.30;;
17925;SDS011;9088;55.674;13.354;2023-03-20T07:08:43;4.53;;;4.33;;
17925;SDS011;9088;55.674;13.354;2023-03-20T07:11:10;4.70;;;4.50;;
17925;SDS011;9088;55.674;13.354;2023-03-20T07:13:38;4.50;;;4.30;;
17925;SDS011;9088;55.674;13.354;2023-03-20T07:16:07;4.70;;;4.50;;
17925;SDS011;9088;55.674;13.354;2023-03-20T07:18:34;4.53;;;4.33;;
17925;SDS011;9088;55.674;13.354;2023-03-20T07:21:02;4.17;;;4.07;;
17925;SDS011;9088;55.674;13.354;2023-03-20T07:23:30;4.50;;;4.30;;
17925;SDS011;9088;55.674;13.354;2023-03-20T07:25:58;4.30;;;4.10;;
17925;SDS011;9088;55.674;13.354;2023-03-20T07:28:25;3.90;;;3.80;;
17925;SDS011;9088;55.674;13.354;2023-03-20T07:30:53;3.67;;;3.57;;
17925;SDS011;9088;55.674;13.354;2023-03-20T07:33:21;3.67;;;3.57;;
17925;SDS011;9088;55.674;13.354;2023-03-20T07:35:51;3.50;;;3.40;;
17925;SDS011;9088;55.674;13.354;2023-03-20T07:38:18;3.30;;;3.20;;
17925;SDS011;9088;55.674;13.354;2023-03-20T07:40:45;3.57;;;3.47;;
17925;SDS011;9088;55.674;13.354;2023-03-20T07:43:13;3.07;;;2.97;;
17925;SDS011;9088;55.674;13.354;2023-03-20T07:45:40;3.47;;;3.37;;
17925;SDS011;9088;55.674;13.354;2023-03-20T07:48:07;3.40;;;3.30;;
17925;SDS011;9088;55.674;13.354;2023-03-20T07:50:35;3.60;;;3.50;;
17925;SDS011;9088;55.674;13.354;2023-03-20T07:53:02;3.40;;;3.30;;
17925;SDS011;9088;55.674;13.354;2023-03-20T07:55:29;3.40;;;3.30;;
17925;SDS011;9088;55.674;13.354;2023-03-20T07:57:59;3.20;;;3.10;;
17925;SDS011;9088;55.674;13.354;2023-03-20T08:00:26;3.30;;;3.20;;
17925;SDS011;9088;55.674;13.354;2023-03-20T08:02:53;3.60;;;3.50;;
17925;SDS011;9088;55.674;13.354;2023-03-20T08:05:22;3.40;;;3.30;;
17925;SDS011;9088;55.674;13.354;2023-03-20T08:07:50;3.40;;;3.30;;
17925;SDS011;9088;55.674;13.354;2023-03-20T08:10:17;3.77;;;3.67;;
17925;SDS011;9088;55.674;13.354;2023-03-20T08:12:44;3.47;;;3.37;;
17925;SDS011;9088;55.674;13.354;2023-03-20T08:15:12;4.00;;;3.90;;
17925;SDS011;9088;55.674;13.354;2023-03-20T08:17:40;3.83;;;3.73;;
17925;SDS011;9088;55.674;13.354;2023-03-20T08:20:08;3.90;;;3.80;;
17925;SDS011;9088;55.674;13.354;2023-03-20T08:22:35;3.97;;;3.87;;
17925;SDS011;9088;55.674;13.354;2023-03-20T08:25:04;4.33;;;4.17;;
17925;SDS011;9088;55.674;13.354;2023-03-20T08:27:32;3.97;;;3.87;;
17925;SDS011;9088;55.674;13.354;2023-03-20T08:29:59;3.97;;;3.87;;
17925;SDS011;9088;55.674;13.354;2023-03-20T08:32:29;4.37;;;4.20;;
17925;SDS011;9088;55.674;13.354;2023-03-20T08:34:56;4.60;;;4.40;;
17925;SDS011;9088;55.674;13.354;2023-03-20T08:37:23;4.60;;;4.40;;
17925;SDS011;9088;55.674;13.354;2023-03-20T08:39:50;5.00;;;4.80;;
17925;SDS011;9088;55.674;13.354;2023-03-20T08:42:19;4.10;;;4.00;;
17925;SDS011;9088;55.674;13.354;2023-03-20T08:44:46;5.00;;;4.80;;
17925;SDS011;9088;55.674;13.354;2023-03-20T08:47:15;4.90;;;4.70;;
17925;SDS011;9088;55.674;13.354;2023-03-20T08:49:43;5.20;;;5.00;;
17925;SDS011;9088;55.674;13.354;2023-03-20T08:52:10;5.13;;;4.93;;
17925;SDS011;9088;55.674;13.354;2023-03-20T08:54:37;5.10;;;4.90;;
17925;SDS011;9088;55.674;13.354;2023-03-20T08:59:56;5.70;;;5.50;;
17925;SDS011;9088;55.674;13.354;2023-03-20T09:02:26;5.30;;;5.10;;
17925;SDS011;9088;55.674;13.354;2023-03-20T09:04:55;5.43;;;5.23;;
17925;SDS011;9088;55.674;13.354;2023-03-20T09:07:22;5.67;;;5.47;;
17925;SDS011;9088;55.674;13.354;2023-03-20T09:09:49;5.40;;;5.20;;
17925;SDS011;9088;55.674;13.354;2023-03-20T09:12:16;5.83;;;5.63;;
17925;SDS011;9088;55.674;13.354;2023-03-20T09:14:43;6.00;;;5.80;;
17925;SDS011;9088;55.674;13.354;2023-03-20T09:17:11;6.17;;;5.97;;
17925;SDS011;9088;55.674;13.354;2023-03-20T09:19:41;6.30;;;6.10;;
17925;SDS011;9088;55.674;13.354;2023-03-20T09:22:09;6.30;;;6.10;;
17925;SDS011;9088;55.674;13.354;2023-03-20T09:24:37;5.97;;;5.77;;
17925;SDS011;9088;55.674;13.354;2023-03-20T09:27:04;6.40;;;6.20;;
17925;SDS011;9088;55.674;13.354;2023-03-20T09:29:31;6.17;;;5.97;;
17925;SDS011;9088;55.674;13.354;2023-03-20T09:31:58;5.80;;;5.60;;
17925;SDS011;9088;55.674;13.354;2023-03-20T09:34:30;6.07;;;5.87;;
17925;SDS011;9088;55.674;13.354;2023-03-20T09:36:57;5.67;;;5.47;;
17925;SDS011;9088;55.674;13.354;2023-03-20T09:39:27;5.77;;;5.57;;
17925;SDS011;9088;55.674;13.354;2023-03-20T09:41:54;6.33;;;6.13;;
17925;SDS011;9088;55.674;13.354;2023-03-20T09:44:28;6.20;;;6.00;;
17925;SDS011;9088;55.674;13.354;2023-03-20T09:46:59;5.80;;;5.60;;
17925;SDS011;9088;55.674;13.354;2023-03-20T09:49:37;6.07;;;5.87;;
17925;SDS011;9088;55.674;13.354;2023-03-20T09:52:12;5.80;;;5.60;;
17925;SDS011;9088;55.674;13.354;2023-03-20T09:54:42;5.83;;;5.63;;
17925;SDS011;9088;55.674;13.354;2023-03-20T09:57:14;5.83;;;5.63;;
17925;SDS011;9088;55.674;13.354;2023-03-20T09:59:43;5.97;;;5.77;;
17925;SDS011;9088;55.674;13.354;2023-03-20T10:02:11;6.07;;;5.87;;
17925;SDS011;9088;55.674;13.354;2023-03-20T10:04:42;5.97;;;5.77;;
17925;SDS011;9088;55.674;13.354;2023-03-20T10:07:09;5.77;;;5.57;;
17925;SDS011;9088;55.674;13.354;2023-03-20T10:09:39;6.63;;;6.40;;
17925;SDS011;9088;55.674;13.354;2023-03-20T10:14:52;6.40;;;6.20;;
17925;SDS011;9088;55.674;13.354;2023-03-20T10:17:28;6.17;;;5.97;;
17925;SDS011;9088;55.674;13.354;2023-03-20T10:20:01;6.80;;;6.50;;
17925;SDS011;9088;55.674;13.354;2023-03-20T10:22:30;6.50;;;6.30;;
17925;SDS011;9088;55.674;13.354;2023-03-20T10:25:00;7.50;;;7.20;;
17925;SDS011;9088;55.674;13.354;2023-03-20T10:27:30;6.37;;;6.17;;
17925;SDS011;9088;55.674;13.354;2023-03-20T10:30:04;6.17;;;5.97;;
17925;SDS011;9088;55.674;13.354;2023-03-20T10:32:34;6.10;;;5.90;;
17925;SDS011;9088;55.674;13.354;2023-03-20T10:35:09;5.80;;;5.60;;
17925;SDS011;9088;55.674;13.354;2023-03-20T10:37:40;6.80;;;6.50;;
17925;SDS011;9088;55.674;13.354;2023-03-20T10:42:56;5.83;;;5.63;;
17925;SDS011;9088;55.674;13.354;2023-03-20T10:45:27;6.27;;;6.07;;
17925;SDS011;9088;55.674;13.354;2023-03-20T10:47:55;6.03;;;5.83;;
17925;SDS011;9088;55.674;13.354;2023-03-20T10:50:26;6.80;;;6.50;;
17925;SDS011;9088;55.674;13.354;2023-03-20T10:52:54;6.50;;;6.30;;
17925;SDS011;9088;55.674;13.354;2023-03-20T10:55:23;6.10;;;5.90;;
17925;SDS011;9088;55.674;13.354;2023-03-20T10:57:53;7.30;;;7.00;;
17925;SDS011;9088;55.674;13.354;2023-03-20T11:00:22;6.93;;;6.63;;
17925;SDS011;9088;55.674;13.354;2023-03-20T11:02:51;6.93;;;6.63;;
17925;SDS011;9088;55.674;13.354;2023-03-20T11:05:20;6.27;;;6.07;;
17925;SDS011;9088;55.674;13.354;2023-03-20T11:07:50;6.30;;;6.10;;
17925;SDS011;9088;55.674;13.354;2023-03-20T11:10:18;6.40;;;6.20;;
17925;SDS011;9088;55.674;13.354;2023-03-20T11:12:51;5.80;;;5.60;;
17925;SDS011;9088;55.674;13.354;2023-03-20T11:15:20;6.20;;;6.00;;
17925;SDS011;9088;55.674;13.354;2023-03-20T11:17:55;6.40;;;6.20;;
17925;SDS011;9088;55.674;13.354;2023-03-20T11:20:23;6.10;;;5.90;;
17925;SDS011;9088;55.674;13.354;2023-03-20T11:22:55;5.80;;;5.60;;
17925;SDS011;9088;55.674;13.354;2023-03-20T11:25:27;6.03;;;5.83;;
17925;SDS011;9088;55.674;13.354;2023-03-20T11:27:55;6.37;;;6.17;;
17925;SDS011;9088;55.674;13.354;2023-03-20T11:30:23;6.33;;;6.13;;
17925;SDS011;9088;55.674;13.354;2023-03-20T11:32:50;6.60;;;6.40;;
17925;SDS011;9088;55.674;13.354;2023-03-20T11:35:21;6.57;;;6.37;;
17925;SDS011;9088;55.674;13.354;2023-03-20T11:37:54;6.20;;;6.00;;
17925;SDS011;9088;55.674;13.354;2023-03-20T11:40:23;6.37;;;6.17;;
17925;SDS011;9088;55.674;13.354;2023-03-20T11:42:51;6.77;;;6.47;;
17925;SDS011;9088;55.674;13.354;2023-03-20T11:45:18;7.20;;;6.90;;
17925;SDS011;9088;55.674;13.354;2023-03-20T11:47:48;7.07;;;6.77;;
17925;SDS011;9088;55.674;13.354;2023-03-20T11:50:23;7.00;;;6.70;;
17925;SDS011;9088;55.674;13.354;2023-03-20T11:52:50;6.50;;;6.30;;
17925;SDS011;9088;55.674;13.354;2023-03-20T11:55:25;7.60;;;7.30;;
17925;SDS011;9088;55.674;13.354;2023-03-20T11:57:55;7.30;;;7.00;;
17925;SDS011;9088;55.674;13.354;2023-03-20T12:00:23;7.60;;;7.30;;
17925;SDS011;9088;55.674;13.354;2023-03-20T12:02:51;7.30;;;7.00;;
17925;SDS011;9088;55.674;13.354;2023-03-20T12:05:22;7.13;;;6.83;;
17925;SDS011;9088;55.674;13.354;2023-03-20T12:07:53;6.77;;;6.47;;
17925;SDS011;9088;55.674;13.354;2023-03-20T12:10:25;6.43;;;6.23;;
17925;SDS011;9088;55.674;13.354;2023-03-20T12:12:54;6.97;;;6.67;;
17925;SDS011;9088;55.674;13.354;2023-03-20T12:15:25;7.03;;;6.73;;
17925;SDS011;9088;55.674;13.354;2023-03-20T12:17:53;7.60;;;7.30;;
17925;SDS011;9088;55.674;13.354;2023-03-20T12:20:26;7.27;;;6.97;;
17925;SDS011;9088;55.674;13.354;2023-03-20T12:23:05;6.73;;;6.47;;
17925;SDS011;9088;55.674;13.354;2023-03-20T12:25:38;6.80;;;6.50;;
17925;SDS011;9088;55.674;13.354;2023-03-20T12:28:09;6.97;;;6.67;;
17925;SDS011;9088;55.674;13.354;2023-03-20T12:30:43;6.50;;;6.30;;
17925;SDS011;9088;55.674;13.354;2023-03-20T12:33:15;6.97;;;6.67;;
17925;SDS011;9088;55.674;13.354;2023-03-20T12:35:46;6.23;;;6.03;;
17925;SDS011;9088;55.674;13.354;2023-03-20T12:38:17;6.13;;;5.93;;
17925;SDS011;9088;55.674;13.354;2023-03-20T12:40:48;6.23;;;6.03;;
17925;SDS011;9088;55.674;13.354;2023-03-20T12:43:17;6.33;;;6.13;;
17925;SDS011;9088;55.674;13.354;2023-03-20T12:45:49;6.50;;;6.30;;
17925;SDS011;9088;55.674;13.354;2023-03-20T12:51:01;6.60;;;6.37;;
17925;SDS011;9088;55.674;13.354;2023-03-20T12:53:37;6.90;;;6.60;;
17925;SDS011;9088;55.674;13.354;2023-03-20T12:56:10;6.80;;;6.50;;
17925;SDS011;9088;55.674;13.354;2023-03-20T12:58:40;6.57;;;6.37;;
17925;SDS011;9088;55.674;13.354;2023-03-20T13:01:09;6.27;;;6.07;;
17925;SDS011;9088;55.674;13.354;2023-03-20T13:06:28;6.90;;;6.60;;
17925;SDS011;9088;55.674;13.354;2023-03-20T13:09:03;7.10;;;6.80;;
17925;SDS011;9088;55.674;13.354;2023-03-20T13:11:41;6.03;;;5.83;;
17925;SDS011;9088;55.674;13.354;2023-03-20T13:14:11;6.67;;;6.40;;
17925;SDS011;9088;55.674;13.354;2023-03-20T13:16:42;6.73;;;6.43;;
17925;SDS011;9088;55.674;13.354;2023-03-20T13:19:13;6.60;;;6.40;;
17925;SDS011;9088;55.674;13.354;2023-03-20T13:21:46;6.70;;;6.40;;
17925;SDS011;9088;55.674;13.354;2023-03-20T13:24:21;6.90;;;6.60;;
17925;SDS011;9088;55.674;13.354;2023-03-20T13:26:53;7.30;;;7.00;;
17925;SDS011;9088;55.674;13.354;2023-03-20T13:29:26;7.30;;;7.00;;
17925;SDS011;9088;55.674;13.354;2023-03-20T13:31:56;7.20;;;6.90;;
17925;SDS011;9088;55.674;13.354;2023-03-20T13:34:27;7.37;;;7.07;;
17925;SDS011;9088;55.674;13.354;2023-03-20T13:37:09;7.43;;;7.13;;
17925;SDS011;9088;55.674;13.354;2023-03-20T13:39:39;7.13;;;6.83;;
17925;SDS011;9088;55.674;13.354;2023-03-20T13:42:10;7.20;;;6.90;;
17925;SDS011;9088;55.674;13.354;2023-03-20T13:44:39;7.67;;;7.37;;
17925;SDS011;9088;55.674;13.354;2023-03-20T13:47:09;7.70;;;7.40;;
17925;SDS011;9088;55.674;13.354;2023-03-20T13:49:37;7.83;;;7.53;;
17925;SDS011;9088;55.674;13.354;2023-03-20T13:52:08;7.50;;;7.20;;
17925;SDS011;9088;55.674;13.354;2023-03-20T13:54:39;7.75;;;7.45;;
17925;SDS011;9088;55.674;13.354;2023-03-20T13:57:16;7.70;;;7.40;;
17925;SDS011;9088;55.674;13.354;2023-03-20T14:00:02;8.20;;;7.90;;
17925;SDS011;9088;55.674;13.354;2023-03-20T14:02:33;7.70;;;7.40;;
17925;SDS011;9088;55.674;13.354;2023-03-20T14:05:02;8.00;;;7.70;;
17925;SDS011;9088;55.674;13.354;2023-03-20T14:07:32;7.70;;;7.40;;
17925;SDS011;9088;55.674;13.354;2023-03-20T14:12:48;7.57;;;7.27;;
17925;SDS011;9088;55.674;13.354;2023-03-20T14:15:16;7.90;;;7.60;;
17925;SDS011;9088;55.674;13.354;2023-03-20T14:17:45;7.80;;;7.50;;
17925;SDS011;9088;55.674;13.354;2023-03-20T14:20:18;7.47;;;7.17;;
17925;SDS011;9088;55.674;13.354;2023-03-20T14:22:48;7.50;;;7.20;;
17925;SDS011;9088;55.674;13.354;2023-03-20T14:25:16;7.50;;;7.20;;
17925;SDS011;9088;55.674;13.354;2023-03-20T14:27:55;7.40;;;7.10;;
17925;SDS011;9088;55.674;13.354;2023-03-20T14:30:35;7.37;;;7.07;;
17925;SDS011;9088;55.674;13.354;2023-03-20T14:33:05;7.73;;;7.43;;
17925;SDS011;9088;55.674;13.354;2023-03-20T14:35:35;7.57;;;7.27;;
17925;SDS011;9088;55.674;13.354;2023-03-20T14:38:10;7.30;;;7.00;;
17925;SDS011;9088;55.674;13.354;2023-03-20T14:40:42;7.40;;;7.10;;
17925;SDS011;9088;55.674;13.354;2023-03-20T14:43:16;7.43;;;7.13;;
17925;SDS011;9088;55.674;13.354;2023-03-20T14:45:45;7.20;;;6.90;;
17925;SDS011;9088;55.674;13.354;2023-03-20T14:48:15;7.57;;;7.27;;
17925;SDS011;9088;55.674;13.354;2023-03-20T14:50:49;7.20;;;6.90;;
17925;SDS011;9088;55.674;13.354;2023-03-20T14:53:19;7.53;;;7.23;;
17925;SDS011;9088;55.674;13.354;2023-03-20T14:55:49;8.00;;;7.70;;
17925;SDS011;9088;55.674;13.354;2023-03-20T14:58:33;8.10;;;7.80;;
17925;SDS011;9088;55.674;13.354;2023-03-20T15:01:01;7.30;;;7.00;;
17925;SDS011;9088;55.674;13.354;2023-03-20T15:03:28;7.53;;;7.23;;
17925;SDS011;9088;55.674;13.354;2023-03-20T15:05:56;7.30;;;7.00;;
17925;SDS011;9088;55.674;13.354;2023-03-20T15:08:26;7.37;;;7.07;;
17925;SDS011;9088;55.674;13.354;2023-03-20T15:10:55;7.03;;;6.73;;
17925;SDS011;9088;55.674;13.354;2023-03-20T15:13:25;7.77;;;7.47;;
17925;SDS011;9088;55.674;13.354;2023-03-20T15:15:56;7.63;;;7.33;;
17925;SDS011;9088;55.674;13.354;2023-03-20T15:18:26;7.03;;;6.73;;
17925;SDS011;9088;55.674;13.354;2023-03-20T15:20:54;7.53;;;7.23;;
17925;SDS011;9088;55.674;13.354;2023-03-20T15:23:22;7.73;;;7.43;;